sensor_id;sensor_type;location;lat;lon;timestamp;P1;durP1;ratioP1;P2;durP2;ratioP2
65049;SDS011;52090;51.224;-2.328;2022-07-22T00:01:53;6.88;;;3.78;;
65049;SDS011;52090;51.224;-2.328;2022-07-22T00:05:35;8.85;;;3.90;;
65049;SDS011;52090;51.224;-2.328;2022-07-22T00:09:17;8.43;;;3.67;;
65049;SDS011;52090;51.224;-2.328;2022-07-22T00:12:59;6.50;;;3.85;;
65049;SDS011;52090;51.224;-2.328;2022-07-22T00:16:41;4.47;;;3.08;;
65049;SDS011;52090;51.224;-2.328;2022-07-22T00:20:23;6.72;;;3.30;;
65049;SDS011;52090;51.224;-2.328;2022-07-22T00:24:05;6.18;;;3.17;;
65049;SDS011;52090;51.224;-2.328;2022-07-22T00:27:47;8.25;;;4.30;;
65049;SDS011;52090;51.224;-2.328;2022-07-22T00:31:29;5.93;;;4.45;;
65049;SDS011;52090;51.224;-2.328;2022-07-22T00:35:12;5.97;;;4.50;;
65049;SDS011;52090;51.224;-2.328;2022-07-22T00:38:54;8.07;;;4.70;;
65049;SDS011;52090;51.224;-2.328;2022-07-22T00:42:36;6.55;;;4.80;;
65049;SDS011;52090;51.224;-2.328;2022-07-22T00:46:19;6.88;;;4.50;;
65049;SDS011;52090;51.224;-2.328;2022-07-22T00:50:01;8.70;;;4.90;;
65049;SDS011;52090;51.224;-2.328;2022-07-22T00:53:44;9.10;;;4.70;;
65049;SDS011;52090;51.224;-2.328;2022-07-22T01:01:08;6.35;;;4.50;;
65049;SDS011;52090;51.224;-2.328;2022-07-22T01:04:51;9.10;;;4.57;;
65049;SDS011;52090;51.224;-2.328;2022-07-22T01:08:33;7.65;;;5.03;;
65049;SDS011;52090;51.224;-2.328;2022-07-22T01:12:15;9.68;;;5.00;;
65049;SDS011;52090;51.224;-2.328;2022-07-22T01:15:58;7.97;;;4.72;;
65049;SDS011;52090;51.224;-2.328;2022-07-22T01:19:49;8.93;;;4.95;;
65049;SDS011;52090;51.224;-2.328;2022-07-22T01:23:32;7.68;;;5.22;;
65049;SDS011;52090;51.224;-2.328;2022-07-22T01:27:14;10.10;;;4.97;;
65049;SDS011;52090;51.224;-2.328;2022-07-22T01:30:56;9.65;;;5.68;;
65049;SDS011;52090;51.224;-2.328;2022-07-22T01:34:38;8.40;;;4.93;;
65049;SDS011;52090;51.224;-2.328;2022-07-22T01:38:20;8.20;;;4.82;;
65049;SDS011;52090;51.224;-2.328;2022-07-22T01:42:02;9.15;;;4.50;;
65049;SDS011;52090;51.224;-2.328;2022-07-22T01:45:44;9.05;;;5.05;;
65049;SDS011;52090;51.224;-2.328;2022-07-22T01:49:27;7.28;;;4.40;;
65049;SDS011;52090;51.224;-2.328;2022-07-22T01:53:08;7.18;;;4.13;;
65049;SDS011;52090;51.224;-2.328;2022-07-22T01:56:50;6.95;;;4.13;;
65049;SDS011;52090;51.224;-2.328;2022-07-22T02:00:33;10.98;;;4.32;;
65049;SDS011;52090;51.224;-2.328;2022-07-22T02:04:15;8.65;;;4.15;;
65049;SDS011;52090;51.224;-2.328;2022-07-22T02:08:03;7.68;;;3.75;;
65049;SDS011;52090;51.224;-2.328;2022-07-22T02:11:47;10.07;;;4.78;;
65049;SDS011;52090;51.224;-2.328;2022-07-22T02:15:28;11.07;;;4.95;;
65049;SDS011;52090;51.224;-2.328;2022-07-22T02:19:10;5.53;;;3.35;;
65049;SDS011;52090;51.224;-2.328;2022-07-22T02:22:52;12.48;;;4.53;;
65049;SDS011;52090;51.224;-2.328;2022-07-22T02:26:34;11.88;;;3.40;;
65049;SDS011;52090;51.224;-2.328;2022-07-22T02:30:16;10.70;;;4.35;;
65049;SDS011;52090;51.224;-2.328;2022-07-22T02:33:58;8.75;;;3.67;;
65049;SDS011;52090;51.224;-2.328;2022-07-22T02:37:40;7.45;;;4.15;;
65049;SDS011;52090;51.224;-2.328;2022-07-22T02:41:23;5.90;;;3.75;;
65049;SDS011;52090;51.224;-2.328;2022-07-22T02:45:05;6.77;;;3.67;;
65049;SDS011;52090;51.224;-2.328;2022-07-22T02:48:48;8.38;;;4.07;;
65049;SDS011;52090;51.224;-2.328;2022-07-22T02:52:30;10.30;;;4.38;;
65049;SDS011;52090;51.224;-2.328;2022-07-22T02:56:12;7.93;;;3.17;;
65049;SDS011;52090;51.224;-2.328;2022-07-22T02:59:54;11.18;;;3.38;;
65049;SDS011;52090;51.224;-2.328;2022-07-22T03:03:36;7.28;;;3.47;;
65049;SDS011;52090;51.224;-2.328;2022-07-22T03:07:17;11.25;;;3.65;;
65049;SDS011;52090;51.224;-2.328;2022-07-22T03:10:59;11.38;;;3.67;;
65049;SDS011;52090;51.224;-2.328;2022-07-22T03:14:41;8.35;;;3.58;;
65049;SDS011;52090;51.224;-2.328;2022-07-22T03:18:23;7.40;;;3.72;;
65049;SDS011;52090;51.224;-2.328;2022-07-22T03:22:05;12.07;;;3.67;;
65049;SDS011;52090;51.224;-2.328;2022-07-22T03:25:47;9.05;;;3.38;;
65049;SDS011;52090;51.224;-2.328;2022-07-22T03:29:29;9.43;;;3.10;;
65049;SDS011;52090;51.224;-2.328;2022-07-22T03:33:11;8.98;;;3.58;;
65049;SDS011;52090;51.224;-2.328;2022-07-22T03:36:53;5.82;;;3.20;;
65049;SDS011;52090;51.224;-2.328;2022-07-22T03:40:34;8.52;;;3.50;;
65049;SDS011;52090;51.224;-2.328;2022-07-22T03:44:16;7.72;;;3.20;;
65049;SDS011;52090;51.224;-2.328;2022-07-22T03:47:58;9.75;;;3.38;;
65049;SDS011;52090;51.224;-2.328;2022-07-22T03:51:40;10.60;;;3.00;;
65049;SDS011;52090;51.224;-2.328;2022-07-22T03:55:22;11.60;;;3.60;;
65049;SDS011;52090;51.224;-2.328;2022-07-22T03:59:04;8.13;;;3.50;;
65049;SDS011;52090;51.224;-2.328;2022-07-22T04:02:46;7.07;;;3.75;;
65049;SDS011;52090;51.224;-2.328;2022-07-22T04:06:28;8.93;;;3.35;;
65049;SDS011;52090;51.224;-2.328;2022-07-22T04:10:10;7.40;;;3.30;;
65049;SDS011;52090;51.224;-2.328;2022-07-22T04:13:58;10.63;;;3.20;;
65049;SDS011;52090;51.224;-2.328;2022-07-22T04:17:41;12.30;;;3.35;;
65049;SDS011;52090;51.224;-2.328;2022-07-22T04:21:23;6.15;;;3.15;;
65049;SDS011;52090;51.224;-2.328;2022-07-22T04:25:05;8.45;;;3.45;;
65049;SDS011;52090;51.224;-2.328;2022-07-22T04:28:47;7.50;;;3.00;;
65049;SDS011;52090;51.224;-2.328;2022-07-22T04:32:29;8.75;;;3.40;;
65049;SDS011;52090;51.224;-2.328;2022-07-22T04:36:11;7.90;;;3.15;;
65049;SDS011;52090;51.224;-2.328;2022-07-22T04:39:53;10.55;;;3.40;;
65049;SDS011;52090;51.224;-2.328;2022-07-22T04:43:35;9.38;;;3.15;;
65049;SDS011;52090;51.224;-2.328;2022-07-22T04:47:18;6.15;;;3.85;;
65049;SDS011;52090;51.224;-2.328;2022-07-22T04:51:00;8.55;;;3.92;;
65049;SDS011;52090;51.224;-2.328;2022-07-22T04:54:42;8.27;;;3.40;;
65049;SDS011;52090;51.224;-2.328;2022-07-22T04:58:24;8.55;;;3.47;;
65049;SDS011;52090;51.224;-2.328;2022-07-22T05:02:06;5.80;;;3.00;;
65049;SDS011;52090;51.224;-2.328;2022-07-22T05:05:48;9.35;;;3.00;;
65049;SDS011;52090;51.224;-2.328;2022-07-22T05:09:30;8.43;;;3.20;;
65049;SDS011;52090;51.224;-2.328;2022-07-22T05:13:13;7.32;;;2.95;;
65049;SDS011;52090;51.224;-2.328;2022-07-22T05:16:55;9.48;;;2.88;;
65049;SDS011;52090;51.224;-2.328;2022-07-22T05:20:37;6.32;;;2.97;;
65049;SDS011;52090;51.224;-2.328;2022-07-22T05:24:22;8.88;;;3.67;;
65049;SDS011;52090;51.224;-2.328;2022-07-22T05:28:04;6.53;;;2.90;;
65049;SDS011;52090;51.224;-2.328;2022-07-22T05:31:46;6.50;;;2.75;;
65049;SDS011;52090;51.224;-2.328;2022-07-22T05:35:27;9.10;;;4.20;;
65049;SDS011;52090;51.224;-2.328;2022-07-22T05:39:09;5.82;;;2.97;;
65049;SDS011;52090;51.224;-2.328;2022-07-22T05:42:51;6.68;;;2.90;;
65049;SDS011;52090;51.224;-2.328;2022-07-22T05:46:33;17.80;;;3.22;;
65049;SDS011;52090;51.224;-2.328;2022-07-22T05:50:15;10.35;;;3.45;;
65049;SDS011;52090;51.224;-2.328;2022-07-22T05:53:57;9.70;;;3.13;;
65049;SDS011;52090;51.224;-2.328;2022-07-22T05:57:39;8.43;;;3.28;;
65049;SDS011;52090;51.224;-2.328;2022-07-22T06:01:21;10.52;;;2.80;;
65049;SDS011;52090;51.224;-2.328;2022-07-22T06:05:03;4.10;;;2.23;;
65049;SDS011;52090;51.224;-2.328;2022-07-22T06:08:45;7.13;;;3.55;;
65049;SDS011;52090;51.224;-2.328;2022-07-22T06:12:33;6.60;;;2.85;;
65049;SDS011;52090;51.224;-2.328;2022-07-22T06:16:15;5.55;;;2.47;;
65049;SDS011;52090;51.224;-2.328;2022-07-22T06:19:57;7.25;;;2.70;;
65049;SDS011;52090;51.224;-2.328;2022-07-22T06:23:39;5.15;;;2.13;;
65049;SDS011;52090;51.224;-2.328;2022-07-22T06:27:21;6.72;;;2.67;;
65049;SDS011;52090;51.224;-2.328;2022-07-22T06:31:03;5.13;;;2.33;;
65049;SDS011;52090;51.224;-2.328;2022-07-22T06:34:45;9.50;;;3.55;;
65049;SDS011;52090;51.224;-2.328;2022-07-22T06:38:27;5.70;;;2.38;;
65049;SDS011;52090;51.224;-2.328;2022-07-22T06:42:16;4.63;;;2.40;;
65049;SDS011;52090;51.224;-2.328;2022-07-22T06:45:58;5.45;;;2.53;;
65049;SDS011;52090;51.224;-2.328;2022-07-22T06:49:40;5.35;;;2.40;;
65049;SDS011;52090;51.224;-2.328;2022-07-22T06:53:24;7.13;;;2.55;;
65049;SDS011;52090;51.224;-2.328;2022-07-22T06:57:06;9.52;;;2.60;;
65049;SDS011;52090;51.224;-2.328;2022-07-22T07:00:48;4.78;;;2.30;;
65049;SDS011;52090;51.224;-2.328;2022-07-22T07:04:29;5.10;;;2.63;;
65049;SDS011;52090;51.224;-2.328;2022-07-22T07:08:11;7.95;;;2.97;;
65049;SDS011;52090;51.224;-2.328;2022-07-22T07:11:53;10.48;;;3.33;;
65049;SDS011;52090;51.224;-2.328;2022-07-22T07:15:35;6.80;;;3.10;;
65049;SDS011;52090;51.224;-2.328;2022-07-22T07:19:17;6.35;;;2.95;;
65049;SDS011;52090;51.224;-2.328;2022-07-22T07:23:00;7.97;;;3.15;;
65049;SDS011;52090;51.224;-2.328;2022-07-22T07:26:43;9.38;;;3.28;;
65049;SDS011;52090;51.224;-2.328;2022-07-22T07:30:25;6.87;;;3.17;;
65049;SDS011;52090;51.224;-2.328;2022-07-22T07:34:07;11.33;;;2.70;;
65049;SDS011;52090;51.224;-2.328;2022-07-22T07:37:49;9.20;;;2.97;;
65049;SDS011;52090;51.224;-2.328;2022-07-22T07:41:31;6.57;;;2.70;;
65049;SDS011;52090;51.224;-2.328;2022-07-22T07:45:13;7.80;;;2.92;;
65049;SDS011;52090;51.224;-2.328;2022-07-22T07:48:55;10.70;;;3.55;;
65049;SDS011;52090;51.224;-2.328;2022-07-22T07:52:41;10.98;;;3.45;;
65049;SDS011;52090;51.224;-2.328;2022-07-22T07:56:32;6.32;;;3.30;;
65049;SDS011;52090;51.224;-2.328;2022-07-22T08:00:14;6.22;;;3.08;;
65049;SDS011;52090;51.224;-2.328;2022-07-22T08:03:58;9.82;;;3.38;;
65049;SDS011;52090;51.224;-2.328;2022-07-22T08:07:59;9.82;;;3.90;;
65049;SDS011;52090;51.224;-2.328;2022-07-22T08:11:42;7.47;;;3.40;;
65049;SDS011;52090;51.224;-2.328;2022-07-22T08:15:24;9.15;;;3.08;;
65049;SDS011;52090;51.224;-2.328;2022-07-22T08:19:06;8.25;;;4.43;;
65049;SDS011;52090;51.224;-2.328;2022-07-22T08:22:49;11.77;;;3.70;;
65049;SDS011;52090;51.224;-2.328;2022-07-22T08:26:31;9.45;;;3.95;;
65049;SDS011;52090;51.224;-2.328;2022-07-22T08:30:14;11.18;;;3.80;;
65049;SDS011;52090;51.224;-2.328;2022-07-22T08:33:56;8.00;;;3.30;;
65049;SDS011;52090;51.224;-2.328;2022-07-22T08:37:40;6.93;;;3.95;;
65049;SDS011;52090;51.224;-2.328;2022-07-22T08:41:23;9.57;;;4.05;;
65049;SDS011;52090;51.224;-2.328;2022-07-22T08:48:55;10.65;;;4.47;;
65049;SDS011;52090;51.224;-2.328;2022-07-22T08:52:38;10.82;;;4.05;;
65049;SDS011;52090;51.224;-2.328;2022-07-22T08:56:20;7.68;;;3.85;;
65049;SDS011;52090;51.224;-2.328;2022-07-22T09:00:03;9.27;;;3.97;;
65049;SDS011;52090;51.224;-2.328;2022-07-22T09:03:53;9.90;;;4.28;;
65049;SDS011;52090;51.224;-2.328;2022-07-22T09:07:40;10.70;;;4.45;;
65049;SDS011;52090;51.224;-2.328;2022-07-22T09:11:24;9.63;;;4.30;;
65049;SDS011;52090;51.224;-2.328;2022-07-22T09:15:09;9.75;;;4.55;;
65049;SDS011;52090;51.224;-2.328;2022-07-22T09:18:52;8.60;;;3.70;;
65049;SDS011;52090;51.224;-2.328;2022-07-22T09:22:37;13.00;;;4.18;;
65049;SDS011;52090;51.224;-2.328;2022-07-22T09:26:30;8.60;;;3.65;;
65049;SDS011;52090;51.224;-2.328;2022-07-22T09:30:24;9.45;;;3.72;;
65049;SDS011;52090;51.224;-2.328;2022-07-22T09:34:08;7.75;;;3.88;;
65049;SDS011;52090;51.224;-2.328;2022-07-22T09:37:52;8.13;;;3.70;;
65049;SDS011;52090;51.224;-2.328;2022-07-22T09:41:34;8.57;;;4.30;;
65049;SDS011;52090;51.224;-2.328;2022-07-22T09:45:17;9.45;;;4.60;;
65049;SDS011;52090;51.224;-2.328;2022-07-22T09:49:00;8.02;;;5.10;;
65049;SDS011;52090;51.224;-2.328;2022-07-22T09:52:43;7.47;;;4.25;;
65049;SDS011;52090;51.224;-2.328;2022-07-22T09:56:25;7.88;;;4.18;;
65049;SDS011;52090;51.224;-2.328;2022-07-22T10:00:14;8.27;;;4.47;;
65049;SDS011;52090;51.224;-2.328;2022-07-22T10:03:57;9.88;;;4.50;;
65049;SDS011;52090;51.224;-2.328;2022-07-22T10:07:41;9.75;;;4.57;;
65049;SDS011;52090;51.224;-2.328;2022-07-22T10:11:24;10.10;;;4.13;;
65049;SDS011;52090;51.224;-2.328;2022-07-22T10:15:07;9.07;;;4.40;;
65049;SDS011;52090;51.224;-2.328;2022-07-22T10:22:44;5.93;;;4.10;;
65049;SDS011;52090;51.224;-2.328;2022-07-22T10:30:30;8.40;;;4.78;;
65049;SDS011;52090;51.224;-2.328;2022-07-22T10:34:12;9.60;;;4.65;;
65049;SDS011;52090;51.224;-2.328;2022-07-22T10:37:55;9.43;;;4.28;;
65049;SDS011;52090;51.224;-2.328;2022-07-22T10:41:41;10.38;;;5.00;;
65049;SDS011;52090;51.224;-2.328;2022-07-22T10:49:17;10.15;;;5.13;;
65049;SDS011;52090;51.224;-2.328;2022-07-22T10:53:01;9.40;;;4.82;;
65049;SDS011;52090;51.224;-2.328;2022-07-22T10:56:46;9.90;;;5.28;;
65049;SDS011;52090;51.224;-2.328;2022-07-22T11:00:30;9.50;;;5.10;;
65049;SDS011;52090;51.224;-2.328;2022-07-22T11:04:14;8.40;;;4.73;;
65049;SDS011;52090;51.224;-2.328;2022-07-22T11:08:00;8.18;;;4.85;;
65049;SDS011;52090;51.224;-2.328;2022-07-22T11:11:54;10.27;;;4.55;;
65049;SDS011;52090;51.224;-2.328;2022-07-22T11:15:37;10.50;;;4.63;;
65049;SDS011;52090;51.224;-2.328;2022-07-22T11:19:21;9.97;;;5.10;;
65049;SDS011;52090;51.224;-2.328;2022-07-22T11:23:05;8.23;;;4.38;;
65049;SDS011;52090;51.224;-2.328;2022-07-22T11:26:50;10.57;;;5.13;;
65049;SDS011;52090;51.224;-2.328;2022-07-22T11:30:33;6.18;;;4.30;;
65049;SDS011;52090;51.224;-2.328;2022-07-22T11:34:15;9.47;;;5.30;;
65049;SDS011;52090;51.224;-2.328;2022-07-22T11:37:57;10.65;;;4.75;;
65049;SDS011;52090;51.224;-2.328;2022-07-22T11:41:39;8.60;;;5.07;;
65049;SDS011;52090;51.224;-2.328;2022-07-22T11:45:22;9.82;;;4.70;;
65049;SDS011;52090;51.224;-2.328;2022-07-22T11:49:04;8.33;;;4.73;;
65049;SDS011;52090;51.224;-2.328;2022-07-22T11:52:52;8.18;;;4.90;;
65049;SDS011;52090;51.224;-2.328;2022-07-22T11:56:35;7.80;;;4.88;;
65049;SDS011;52090;51.224;-2.328;2022-07-22T12:00:17;9.23;;;4.70;;
65049;SDS011;52090;51.224;-2.328;2022-07-22T12:04:02;7.95;;;4.18;;
65049;SDS011;52090;51.224;-2.328;2022-07-22T12:07:45;9.05;;;4.18;;
65049;SDS011;52090;51.224;-2.328;2022-07-22T12:11:31;6.38;;;3.95;;
65049;SDS011;52090;51.224;-2.328;2022-07-22T12:15:13;6.18;;;3.70;;
65049;SDS011;52090;51.224;-2.328;2022-07-22T12:19:16;9.77;;;4.63;;
65049;SDS011;52090;51.224;-2.328;2022-07-22T12:23:00;8.55;;;4.03;;
65049;SDS011;52090;51.224;-2.328;2022-07-22T12:26:47;7.93;;;4.22;;
65049;SDS011;52090;51.224;-2.328;2022-07-22T12:30:29;8.95;;;4.28;;
65049;SDS011;52090;51.224;-2.328;2022-07-22T12:34:12;9.98;;;4.25;;
65049;SDS011;52090;51.224;-2.328;2022-07-22T12:37:54;12.10;;;4.68;;
65049;SDS011;52090;51.224;-2.328;2022-07-22T12:41:43;9.30;;;4.57;;
65049;SDS011;52090;51.224;-2.328;2022-07-22T12:45:30;9.40;;;4.07;;
65049;SDS011;52090;51.224;-2.328;2022-07-22T12:49:15;8.68;;;4.20;;
65049;SDS011;52090;51.224;-2.328;2022-07-22T12:53:20;9.20;;;4.20;;
65049;SDS011;52090;51.224;-2.328;2022-07-22T12:57:03;7.03;;;3.53;;
65049;SDS011;52090;51.224;-2.328;2022-07-22T13:00:47;6.47;;;3.22;;
65049;SDS011;52090;51.224;-2.328;2022-07-22T13:04:33;4.78;;;2.90;;
65049;SDS011;52090;51.224;-2.328;2022-07-22T13:08:15;5.97;;;3.60;;
65049;SDS011;52090;51.224;-2.328;2022-07-22T13:11:58;8.98;;;5.28;;
65049;SDS011;52090;51.224;-2.328;2022-07-22T13:15:40;9.38;;;5.05;;
65049;SDS011;52090;51.224;-2.328;2022-07-22T13:19:22;12.17;;;5.43;;
65049;SDS011;52090;51.224;-2.328;2022-07-22T13:23:04;13.00;;;6.15;;
65049;SDS011;52090;51.224;-2.328;2022-07-22T13:26:45;10.38;;;5.68;;
65049;SDS011;52090;51.224;-2.328;2022-07-22T13:30:28;12.97;;;5.70;;
65049;SDS011;52090;51.224;-2.328;2022-07-22T13:34:10;11.10;;;5.22;;
65049;SDS011;52090;51.224;-2.328;2022-07-22T13:37:52;12.38;;;5.88;;
65049;SDS011;52090;51.224;-2.328;2022-07-22T13:41:34;9.15;;;5.05;;
65049;SDS011;52090;51.224;-2.328;2022-07-22T13:45:15;9.00;;;5.23;;
65049;SDS011;52090;51.224;-2.328;2022-07-22T13:48:57;8.32;;;4.00;;
65049;SDS011;52090;51.224;-2.328;2022-07-22T13:52:39;7.53;;;4.60;;
65049;SDS011;52090;51.224;-2.328;2022-07-22T13:56:22;5.13;;;3.80;;
65049;SDS011;52090;51.224;-2.328;2022-07-22T14:00:04;7.73;;;3.97;;
65049;SDS011;52090;51.224;-2.328;2022-07-22T14:03:55;6.47;;;3.97;;
65049;SDS011;52090;51.224;-2.328;2022-07-22T14:07:37;5.63;;;3.90;;
65049;SDS011;52090;51.224;-2.328;2022-07-22T14:11:19;5.77;;;3.53;;
65049;SDS011;52090;51.224;-2.328;2022-07-22T14:15:01;9.07;;;3.63;;
65049;SDS011;52090;51.224;-2.328;2022-07-22T14:18:44;9.95;;;4.10;;
65049;SDS011;52090;51.224;-2.328;2022-07-22T14:22:27;8.23;;;4.43;;
65049;SDS011;52090;51.224;-2.328;2022-07-22T14:26:09;8.30;;;4.32;;
65049;SDS011;52090;51.224;-2.328;2022-07-22T14:29:51;9.10;;;4.32;;
65049;SDS011;52090;51.224;-2.328;2022-07-22T14:33:33;6.88;;;4.13;;
65049;SDS011;52090;51.224;-2.328;2022-07-22T14:37:15;7.90;;;4.60;;
65049;SDS011;52090;51.224;-2.328;2022-07-22T14:40:57;8.02;;;4.28;;
65049;SDS011;52090;51.224;-2.328;2022-07-22T14:44:39;8.97;;;3.97;;
65049;SDS011;52090;51.224;-2.328;2022-07-22T14:48:20;6.55;;;4.53;;
65049;SDS011;52090;51.224;-2.328;2022-07-22T14:52:02;8.32;;;4.45;;
65049;SDS011;52090;51.224;-2.328;2022-07-22T14:55:44;7.43;;;4.80;;
65049;SDS011;52090;51.224;-2.328;2022-07-22T14:59:26;7.13;;;4.73;;
65049;SDS011;52090;51.224;-2.328;2022-07-22T15:03:10;10.35;;;4.82;;
65049;SDS011;52090;51.224;-2.328;2022-07-22T15:06:51;9.32;;;5.53;;
65049;SDS011;52090;51.224;-2.328;2022-07-22T15:10:33;8.15;;;4.60;;
65049;SDS011;52090;51.224;-2.328;2022-07-22T15:14:15;8.75;;;4.90;;
65049;SDS011;52090;51.224;-2.328;2022-07-22T15:17:57;7.00;;;4.68;;
65049;SDS011;52090;51.224;-2.328;2022-07-22T15:21:40;7.20;;;4.72;;
65049;SDS011;52090;51.224;-2.328;2022-07-22T15:25:21;6.65;;;4.43;;
65049;SDS011;52090;51.224;-2.328;2022-07-22T15:29:04;7.70;;;4.57;;
65049;SDS011;52090;51.224;-2.328;2022-07-22T15:32:46;7.65;;;4.78;;
65049;SDS011;52090;51.224;-2.328;2022-07-22T15:36:28;8.35;;;5.28;;
65049;SDS011;52090;51.224;-2.328;2022-07-22T15:40:10;9.33;;;5.40;;
65049;SDS011;52090;51.224;-2.328;2022-07-22T15:43:52;8.98;;;4.85;;
65049;SDS011;52090;51.224;-2.328;2022-07-22T15:47:34;8.77;;;5.30;;
65049;SDS011;52090;51.224;-2.328;2022-07-22T15:51:16;9.53;;;5.87;;
65049;SDS011;52090;51.224;-2.328;2022-07-22T15:54:58;8.30;;;5.13;;
65049;SDS011;52090;51.224;-2.328;2022-07-22T15:58:40;7.35;;;5.32;;
65049;SDS011;52090;51.224;-2.328;2022-07-22T16:03:01;7.70;;;5.10;;
65049;SDS011;52090;51.224;-2.328;2022-07-22T16:06:43;9.98;;;4.72;;
65049;SDS011;52090;51.224;-2.328;2022-07-22T16:10:27;7.55;;;5.20;;
65049;SDS011;52090;51.224;-2.328;2022-07-22T16:14:09;8.13;;;5.72;;
65049;SDS011;52090;51.224;-2.328;2022-07-22T16:17:50;9.13;;;5.50;;
65049;SDS011;52090;51.224;-2.328;2022-07-22T16:21:32;8.45;;;5.22;;
65049;SDS011;52090;51.224;-2.328;2022-07-22T16:25:14;10.13;;;5.63;;
65049;SDS011;52090;51.224;-2.328;2022-07-22T16:28:56;8.45;;;5.80;;
65049;SDS011;52090;51.224;-2.328;2022-07-22T16:32:39;10.43;;;5.32;;
65049;SDS011;52090;51.224;-2.328;2022-07-22T16:36:28;7.65;;;4.88;;
65049;SDS011;52090;51.224;-2.328;2022-07-22T16:40:10;7.75;;;4.63;;
65049;SDS011;52090;51.224;-2.328;2022-07-22T16:43:54;10.60;;;5.70;;
65049;SDS011;52090;51.224;-2.328;2022-07-22T16:47:37;12.52;;;7.22;;
65049;SDS011;52090;51.224;-2.328;2022-07-22T16:51:18;9.80;;;5.75;;
65049;SDS011;52090;51.224;-2.328;2022-07-22T16:55:01;11.63;;;6.28;;
65049;SDS011;52090;51.224;-2.328;2022-07-22T16:58:43;9.52;;;6.25;;
65049;SDS011;52090;51.224;-2.328;2022-07-22T17:02:26;11.10;;;6.63;;
65049;SDS011;52090;51.224;-2.328;2022-07-22T17:06:08;8.88;;;6.10;;
65049;SDS011;52090;51.224;-2.328;2022-07-22T17:09:51;12.50;;;7.00;;
65049;SDS011;52090;51.224;-2.328;2022-07-22T17:13:33;9.52;;;6.93;;
65049;SDS011;52090;51.224;-2.328;2022-07-22T17:17:15;10.95;;;5.50;;
65049;SDS011;52090;51.224;-2.328;2022-07-22T17:20:57;10.00;;;5.35;;
65049;SDS011;52090;51.224;-2.328;2022-07-22T17:24:44;8.88;;;5.30;;
65049;SDS011;52090;51.224;-2.328;2022-07-22T17:28:26;7.25;;;4.80;;
65049;SDS011;52090;51.224;-2.328;2022-07-22T17:32:08;6.93;;;4.63;;
65049;SDS011;52090;51.224;-2.328;2022-07-22T17:35:50;11.25;;;5.38;;
65049;SDS011;52090;51.224;-2.328;2022-07-22T17:39:32;9.88;;;5.45;;
65049;SDS011;52090;51.224;-2.328;2022-07-22T17:43:14;9.07;;;4.82;;
65049;SDS011;52090;51.224;-2.328;2022-07-22T17:46:57;10.88;;;5.75;;
65049;SDS011;52090;51.224;-2.328;2022-07-22T17:50:39;7.45;;;5.20;;
65049;SDS011;52090;51.224;-2.328;2022-07-22T17:54:21;8.38;;;5.00;;
65049;SDS011;52090;51.224;-2.328;2022-07-22T17:58:03;9.70;;;5.65;;
65049;SDS011;52090;51.224;-2.328;2022-07-22T18:01:45;9.37;;;5.20;;
65049;SDS011;52090;51.224;-2.328;2022-07-22T18:05:27;11.90;;;5.38;;
65049;SDS011;52090;51.224;-2.328;2022-07-22T18:09:09;11.25;;;5.22;;
65049;SDS011;52090;51.224;-2.328;2022-07-22T18:12:51;9.23;;;4.88;;
65049;SDS011;52090;51.224;-2.328;2022-07-22T18:16:33;10.73;;;5.75;;
65049;SDS011;52090;51.224;-2.328;2022-07-22T18:20:16;9.00;;;5.97;;
65049;SDS011;52090;51.224;-2.328;2022-07-22T18:24:01;9.35;;;6.20;;
65049;SDS011;52090;51.224;-2.328;2022-07-22T18:27:46;10.73;;;5.78;;
65049;SDS011;52090;51.224;-2.328;2022-07-22T18:31:28;8.50;;;5.57;;
65049;SDS011;52090;51.224;-2.328;2022-07-22T18:35:10;11.55;;;6.28;;
65049;SDS011;52090;51.224;-2.328;2022-07-22T18:38:52;8.32;;;5.03;;
65049;SDS011;52090;51.224;-2.328;2022-07-22T18:42:35;11.30;;;5.35;;
65049;SDS011;52090;51.224;-2.328;2022-07-22T18:46:17;9.60;;;5.55;;
65049;SDS011;52090;51.224;-2.328;2022-07-22T18:49:59;7.57;;;5.35;;
65049;SDS011;52090;51.224;-2.328;2022-07-22T18:53:41;10.05;;;5.50;;
65049;SDS011;52090;51.224;-2.328;2022-07-22T18:57:23;8.83;;;6.00;;
65049;SDS011;52090;51.224;-2.328;2022-07-22T19:01:08;8.82;;;5.57;;
65049;SDS011;52090;51.224;-2.328;2022-07-22T19:04:50;9.30;;;5.47;;
65049;SDS011;52090;51.224;-2.328;2022-07-22T19:08:33;8.30;;;5.15;;
65049;SDS011;52090;51.224;-2.328;2022-07-22T19:12:15;8.35;;;4.82;;
65049;SDS011;52090;51.224;-2.328;2022-07-22T19:15:57;9.35;;;5.32;;
65049;SDS011;52090;51.224;-2.328;2022-07-22T19:19:39;7.40;;;5.15;;
65049;SDS011;52090;51.224;-2.328;2022-07-22T19:23:21;8.10;;;4.30;;
65049;SDS011;52090;51.224;-2.328;2022-07-22T19:27:03;9.10;;;5.47;;
65049;SDS011;52090;51.224;-2.328;2022-07-22T19:30:46;8.10;;;5.35;;
65049;SDS011;52090;51.224;-2.328;2022-07-22T19:34:28;8.32;;;5.10;;
65049;SDS011;52090;51.224;-2.328;2022-07-22T19:38:10;9.27;;;5.70;;
65049;SDS011;52090;51.224;-2.328;2022-07-22T19:41:52;8.75;;;5.55;;
65049;SDS011;52090;51.224;-2.328;2022-07-22T19:45:33;9.77;;;4.68;;
65049;SDS011;52090;51.224;-2.328;2022-07-22T19:49:15;10.43;;;4.50;;
65049;SDS011;52090;51.224;-2.328;2022-07-22T19:52:58;8.85;;;4.30;;
65049;SDS011;52090;51.224;-2.328;2022-07-22T19:56:40;7.55;;;3.22;;
65049;SDS011;52090;51.224;-2.328;2022-07-22T20:00:22;6.80;;;3.55;;
65049;SDS011;52090;51.224;-2.328;2022-07-22T20:04:04;7.32;;;4.00;;
65049;SDS011;52090;51.224;-2.328;2022-07-22T20:07:46;9.98;;;3.30;;
65049;SDS011;52090;51.224;-2.328;2022-07-22T20:11:28;10.00;;;3.55;;
65049;SDS011;52090;51.224;-2.328;2022-07-22T20:15:10;6.50;;;3.17;;
65049;SDS011;52090;51.224;-2.328;2022-07-22T20:18:52;5.57;;;2.60;;
65049;SDS011;52090;51.224;-2.328;2022-07-22T20:22:34;5.32;;;3.78;;
65049;SDS011;52090;51.224;-2.328;2022-07-22T20:26:17;7.82;;;3.08;;
65049;SDS011;52090;51.224;-2.328;2022-07-22T20:30:03;8.95;;;3.60;;
65049;SDS011;52090;51.224;-2.328;2022-07-22T20:33:45;10.47;;;3.77;;
65049;SDS011;52090;51.224;-2.328;2022-07-22T20:37:27;6.55;;;3.15;;
65049;SDS011;52090;51.224;-2.328;2022-07-22T20:41:09;7.15;;;3.65;;
65049;SDS011;52090;51.224;-2.328;2022-07-22T20:44:51;6.40;;;3.70;;
65049;SDS011;52090;51.224;-2.328;2022-07-22T20:48:33;6.47;;;3.50;;
65049;SDS011;52090;51.224;-2.328;2022-07-22T20:52:15;7.80;;;4.07;;
65049;SDS011;52090;51.224;-2.328;2022-07-22T20:55:58;8.63;;;4.32;;
65049;SDS011;52090;51.224;-2.328;2022-07-22T20:59:40;6.88;;;4.60;;
65049;SDS011;52090;51.224;-2.328;2022-07-22T21:03:22;8.70;;;4.20;;
65049;SDS011;52090;51.224;-2.328;2022-07-22T21:07:04;5.57;;;4.32;;
65049;SDS011;52090;51.224;-2.328;2022-07-22T21:10:46;10.60;;;5.18;;
65049;SDS011;52090;51.224;-2.328;2022-07-22T21:14:27;7.35;;;3.80;;
65049;SDS011;52090;51.224;-2.328;2022-07-22T21:18:09;5.65;;;4.40;;
65049;SDS011;52090;51.224;-2.328;2022-07-22T21:21:52;10.40;;;4.90;;
65049;SDS011;52090;51.224;-2.328;2022-07-22T21:25:34;6.97;;;3.80;;
65049;SDS011;52090;51.224;-2.328;2022-07-22T21:29:16;6.65;;;3.60;;
65049;SDS011;52090;51.224;-2.328;2022-07-22T21:32:58;5.70;;;3.23;;
65049;SDS011;52090;51.224;-2.328;2022-07-22T21:36:40;7.95;;;3.40;;
65049;SDS011;52090;51.224;-2.328;2022-07-22T21:40:22;6.68;;;3.08;;
65049;SDS011;52090;51.224;-2.328;2022-07-22T21:44:09;8.00;;;4.00;;
65049;SDS011;52090;51.224;-2.328;2022-07-22T21:47:54;8.70;;;5.25;;
65049;SDS011;52090;51.224;-2.328;2022-07-22T21:51:36;12.07;;;4.82;;
65049;SDS011;52090;51.224;-2.328;2022-07-22T21:55:19;9.70;;;4.75;;
65049;SDS011;52090;51.224;-2.328;2022-07-22T21:59:02;7.88;;;4.07;;
65049;SDS011;52090;51.224;-2.328;2022-07-22T22:02:45;6.63;;;3.43;;
65049;SDS011;52090;51.224;-2.328;2022-07-22T22:06:28;8.27;;;4.38;;
65049;SDS011;52090;51.224;-2.328;2022-07-22T22:10:15;5.15;;;3.40;;
65049;SDS011;52090;51.224;-2.328;2022-07-22T22:14:00;8.60;;;3.38;;
65049;SDS011;52090;51.224;-2.328;2022-07-22T22:17:43;6.25;;;3.55;;